createdAt,value
2022-11-21T00:01:29.413Z,2.10
2022-11-21T00:03:57.017Z,2.00
2022-11-21T00:06:24.796Z,2.00
2022-11-21T00:08:52.504Z,2.00
2022-11-21T00:11:20.040Z,1.90
2022-11-21T00:13:47.688Z,1.90
2022-11-21T00:16:17.431Z,1.80
2022-11-21T00:18:44.986Z,1.80
2022-11-21T00:21:15.090Z,1.80
2022-11-21T00:23:46.617Z,1.80
2022-11-21T00:26:16.757Z,1.90
2022-11-21T00:28:46.023Z,1.90
2022-11-21T00:31:23.448Z,1.90
2022-11-21T00:33:51.108Z,1.90
2022-11-21T00:36:18.783Z,1.90
2022-11-21T00:38:46.610Z,1.90
2022-11-21T00:41:14.288Z,1.80
2022-11-21T00:43:44.574Z,1.70
2022-11-21T00:46:12.250Z,1.60
2022-11-21T00:48:39.943Z,1.60
2022-11-21T00:51:07.523Z,1.50
2022-11-21T00:53:35.132Z,1.50
2022-11-21T00:56:04.130Z,1.50
2022-11-21T00:58:31.899Z,1.50
2022-11-21T01:01:11.916Z,1.40
2022-11-21T01:03:40.728Z,1.40
2022-11-21T01:06:10.954Z,1.20
2022-11-21T01:08:41.120Z,1.20
2022-11-21T01:11:12.348Z,1.20
2022-11-21T01:13:40.610Z,1.20
2022-11-21T01:16:14.099Z,1.20
2022-11-21T01:18:41.919Z,1.20
2022-11-21T01:21:23.932Z,1.10
2022-11-21T01:23:52.340Z,1.20
2022-11-21T01:26:25.348Z,1.10
2022-11-21T01:28:53.640Z,1.20
2022-11-21T01:31:23.733Z,1.20
2022-11-21T01:33:52.408Z,1.20
2022-11-21T01:36:31.860Z,1.20
2022-11-21T01:39:02.228Z,1.20
2022-11-21T01:41:33.636Z,1.20
2022-11-21T01:44:03.441Z,1.20
2022-11-21T01:49:05.818Z,1.30
2022-11-21T01:51:42.922Z,1.30
2022-11-21T01:54:30.800Z,1.30
2022-11-21T01:57:08.410Z,1.30
2022-11-21T01:59:49.470Z,1.30
2022-11-21T02:02:20.820Z,1.40
2022-11-21T02:04:49.969Z,1.40
2022-11-21T02:07:20.359Z,1.50
2022-11-21T02:10:01.202Z,1.50
2022-11-21T02:12:43.562Z,1.60
2022-11-21T02:15:11.796Z,1.70
2022-11-21T02:17:39.484Z,1.80
2022-11-21T02:20:10.433Z,1.80
2022-11-21T02:23:07.645Z,1.90
2022-11-21T02:25:37.956Z,1.90
2022-11-21T02:28:15.556Z,1.90
2022-11-21T02:30:44.062Z,1.90
2022-11-21T02:33:12.945Z,1.90
2022-11-21T02:35:40.728Z,2.00
2022-11-21T02:38:20.967Z,1.90
2022-11-21T02:41:09.543Z,2.00
2022-11-21T02:43:52.315Z,2.00
2022-11-21T02:46:19.867Z,2.00
2022-11-21T02:48:47.347Z,2.00
2022-11-21T02:51:14.978Z,2.00
2022-11-21T02:53:42.530Z,2.00
2022-11-21T02:56:10.127Z,2.00
2022-11-21T02:58:38.181Z,2.00
2022-11-21T03:01:05.775Z,2.00
2022-11-21T03:03:33.303Z,2.00
2022-11-21T03:06:00.855Z,2.10
2022-11-21T03:08:28.386Z,2.00
2022-11-21T03:10:55.946Z,2.00
2022-11-21T03:13:23.420Z,2.00
2022-11-21T03:15:50.921Z,2.00
2022-11-21T03:18:18.405Z,2.00
2022-11-21T03:20:45.927Z,2.00
2022-11-21T03:23:13.394Z,2.10
2022-11-21T03:25:41.043Z,2.10
2022-11-21T03:28:08.535Z,2.10
2022-11-21T03:30:36.031Z,2.10
2022-11-21T03:33:03.549Z,2.10
2022-11-21T03:35:31.155Z,2.10
2022-11-21T03:37:58.653Z,2.10
2022-11-21T03:40:26.176Z,2.20
2022-11-21T03:42:53.663Z,2.20
2022-11-21T03:45:21.143Z,2.20
2022-11-21T03:47:48.628Z,2.30
2022-11-21T03:50:19.032Z,2.30
2022-11-21T03:52:46.579Z,2.30
2022-11-21T03:55:15.198Z,2.50
2022-11-21T03:57:42.754Z,2.40
2022-11-21T04:00:10.982Z,2.50
2022-11-21T04:02:38.532Z,2.50
2022-11-21T04:05:06.250Z,2.50
2022-11-21T04:07:33.803Z,2.60
2022-11-21T04:10:01.445Z,2.60
2022-11-21T04:12:28.971Z,2.60
2022-11-21T04:14:56.511Z,2.70
2022-11-21T04:17:24.022Z,2.70
2022-11-21T04:19:51.511Z,2.70
2022-11-21T04:22:19.006Z,2.80
2022-11-21T04:24:46.543Z,2.80
2022-11-21T04:27:14.019Z,2.80
2022-11-21T04:29:41.568Z,2.70
2022-11-21T04:32:09.028Z,2.80
2022-11-21T04:34:36.512Z,2.70
2022-11-21T04:37:08.809Z,2.70
2022-11-21T04:39:38.928Z,2.70
2022-11-21T04:42:06.426Z,2.80
2022-11-21T04:44:33.899Z,2.70
2022-11-21T04:47:05.274Z,2.70
2022-11-21T04:49:33.252Z,2.70
2022-11-21T04:52:00.727Z,2.80
2022-11-21T04:54:28.771Z,2.80
2022-11-21T04:56:56.964Z,2.70
2022-11-21T04:59:24.525Z,2.80
2022-11-21T05:01:52.292Z,2.80
2022-11-21T05:04:19.768Z,2.90
2022-11-21T05:06:47.275Z,2.80
2022-11-21T05:09:14.807Z,2.90
2022-11-21T05:12:01.299Z,2.90
2022-11-21T05:14:29.083Z,2.90
2022-11-21T05:16:56.697Z,2.90
2022-11-21T05:19:24.182Z,2.90
2022-11-21T05:21:51.767Z,3.10
2022-11-21T05:24:19.345Z,3.00
2022-11-21T05:26:46.876Z,3.10
2022-11-21T05:29:14.427Z,3.10
2022-11-21T05:31:41.974Z,3.20
2022-11-21T05:34:09.403Z,3.20
2022-11-21T05:36:37.097Z,3.20
2022-11-21T05:39:04.611Z,3.20
2022-11-21T05:41:32.196Z,3.20
2022-11-21T05:43:59.760Z,3.20
2022-11-21T05:46:27.376Z,3.30
2022-11-21T05:48:55.368Z,3.30
2022-11-21T05:51:23.281Z,3.30
2022-11-21T05:53:51.100Z,3.30
2022-11-21T05:56:19.754Z,3.30
2022-11-21T05:58:47.458Z,3.30
2022-11-21T06:01:15.432Z,3.30
2022-11-21T06:03:43.314Z,3.40
2022-11-21T06:06:13.793Z,3.30
2022-11-21T06:08:46.665Z,3.40
2022-11-21T06:11:16.454Z,3.40
2022-11-21T06:13:44.743Z,3.40
2022-11-21T06:16:15.125Z,3.40
2022-11-21T06:18:44.962Z,3.40
2022-11-21T06:21:14.213Z,3.40
2022-11-21T06:23:42.283Z,3.40
2022-11-21T06:26:14.149Z,3.40
2022-11-21T06:28:43.180Z,3.50
2022-11-21T06:31:12.094Z,3.50
2022-11-21T06:33:41.014Z,3.50
2022-11-21T06:36:13.931Z,3.50
2022-11-21T06:38:42.417Z,3.50
2022-11-21T06:41:20.375Z,3.50
2022-11-21T06:43:48.042Z,3.60
2022-11-21T06:46:16.207Z,3.60
2022-11-21T06:48:45.170Z,3.70
2022-11-21T06:51:14.797Z,3.70
2022-11-21T06:53:42.431Z,3.70
2022-11-21T06:56:10.533Z,3.70
2022-11-21T06:58:38.479Z,3.80
2022-11-21T07:01:10.521Z,3.80
2022-11-21T07:06:07.081Z,3.80
2022-11-21T07:08:36.178Z,3.80
2022-11-21T07:11:27.511Z,3.80
2022-11-21T07:13:55.380Z,3.90
2022-11-21T07:16:26.319Z,3.90
2022-11-21T07:18:54.161Z,3.90
2022-11-21T07:21:21.759Z,3.90
2022-11-21T07:23:49.402Z,4.00
2022-11-21T07:26:17.280Z,4.00
2022-11-21T07:28:44.990Z,4.00
2022-11-21T07:31:14.231Z,4.00
2022-11-21T07:33:46.714Z,4.00
2022-11-21T07:36:14.845Z,4.00
2022-11-21T07:38:42.661Z,4.10
2022-11-21T07:41:10.436Z,4.00
2022-11-21T07:43:38.067Z,4.10
2022-11-21T07:46:05.711Z,4.10
2022-11-21T07:48:33.475Z,4.10
2022-11-21T07:51:04.956Z,4.10
2022-11-21T07:53:32.980Z,4.10
2022-11-21T07:56:00.964Z,4.10
2022-11-21T07:58:28.744Z,4.20
2022-11-21T08:00:56.539Z,4.10
2022-11-21T08:03:25.546Z,4.10
2022-11-21T08:05:53.024Z,4.10
2022-11-21T08:08:20.824Z,4.10
2022-11-21T08:10:48.594Z,4.20
2022-11-21T08:13:16.283Z,4.20
2022-11-21T08:15:44.195Z,4.20
2022-11-21T08:18:13.927Z,4.30
2022-11-21T08:20:41.996Z,4.30
2022-11-21T08:23:10.899Z,4.30
2022-11-21T08:25:40.612Z,4.40
2022-11-21T08:28:09.949Z,4.40
2022-11-21T08:30:39.037Z,4.50
2022-11-21T08:33:07.472Z,4.50
2022-11-21T08:35:38.358Z,4.60
2022-11-21T08:38:06.606Z,4.50
2022-11-21T08:40:35.754Z,4.60
2022-11-21T08:43:08.900Z,4.60
2022-11-21T08:45:38.561Z,4.70
2022-11-21T08:48:15.109Z,4.70
2022-11-21T08:50:42.902Z,4.80
2022-11-21T08:53:10.562Z,4.80
2022-11-21T08:55:38.143Z,4.80
2022-11-21T08:58:05.720Z,4.80
2022-11-21T09:00:33.298Z,4.80
2022-11-21T09:03:07.896Z,4.90
2022-11-21T09:05:35.830Z,4.90
2022-11-21T09:08:03.391Z,4.90
2022-11-21T09:10:31.105Z,4.90
2022-11-21T09:12:59.922Z,4.90
2022-11-21T09:15:45.960Z,5.00
2022-11-21T09:18:13.801Z,5.00
2022-11-21T09:20:43.204Z,4.90
2022-11-21T09:23:12.431Z,5.10
2022-11-21T09:25:40.386Z,5.10
2022-11-21T09:28:11.030Z,5.00
2022-11-21T09:30:38.987Z,5.10
2022-11-21T09:33:14.707Z,5.20
2022-11-21T09:35:42.446Z,5.20
2022-11-21T09:38:10.062Z,5.20
2022-11-21T09:40:43.468Z,5.30
2022-11-21T09:43:36.140Z,5.30
2022-11-21T09:46:13.921Z,5.30
2022-11-21T09:48:58.427Z,5.40
2022-11-21T09:51:29.356Z,5.40
2022-11-21T09:54:13.615Z,5.50
2022-11-21T09:56:43.045Z,5.50
2022-11-21T09:59:33.967Z,5.50
2022-11-21T10:02:02.683Z,5.60
2022-11-21T10:04:31.796Z,5.60
2022-11-21T10:07:11.576Z,5.60
2022-11-21T10:10:10.789Z,5.70
2022-11-21T10:12:46.325Z,5.60
2022-11-21T10:15:42.179Z,5.60
2022-11-21T10:18:31.573Z,5.60
2022-11-21T10:21:34.209Z,5.70
2022-11-21T10:24:22.591Z,5.70
2022-11-21T10:27:01.091Z,5.80
2022-11-21T10:29:34.928Z,5.80
2022-11-21T10:32:19.676Z,5.80
2022-11-21T10:34:50.302Z,5.80
2022-11-21T10:37:25.681Z,5.80
2022-11-21T10:39:56.676Z,5.90
2022-11-21T10:42:41.847Z,5.90
2022-11-21T10:45:23.018Z,5.90
2022-11-21T10:47:53.794Z,5.90
2022-11-21T10:50:40.028Z,6.00
2022-11-21T10:53:44.078Z,6.00
2022-11-21T10:56:15.965Z,5.90
2022-11-21T10:58:49.265Z,6.00
2022-11-21T11:01:22.842Z,5.90
2022-11-21T11:04:28.540Z,5.90
2022-11-21T11:07:00.031Z,5.90
2022-11-21T11:09:31.402Z,5.90
2022-11-21T11:12:17.379Z,5.90
2022-11-21T11:14:55.692Z,5.90
2022-11-21T11:17:34.621Z,5.80
2022-11-21T11:20:27.593Z,5.80
2022-11-21T11:22:55.377Z,5.80
2022-11-21T11:25:23.443Z,5.80
2022-11-21T11:27:51.118Z,5.80
2022-11-21T11:30:19.771Z,5.80
2022-11-21T11:32:48.084Z,5.80
2022-11-21T11:35:33.895Z,5.80
2022-11-21T11:38:04.669Z,5.80
2022-11-21T11:40:44.673Z,5.80
2022-11-21T11:43:30.816Z,5.90
2022-11-21T11:46:35.780Z,5.90
2022-11-21T11:49:21.107Z,5.90
2022-11-21T11:51:55.657Z,5.90
2022-11-21T11:54:47.513Z,5.90
2022-11-21T11:57:17.289Z,5.90
2022-11-21T11:59:49.581Z,5.90
2022-11-21T12:02:20.751Z,5.90
2022-11-21T12:04:59.638Z,5.90
2022-11-21T12:10:31.206Z,5.90
2022-11-21T12:13:10.547Z,6.00
2022-11-21T12:15:50.168Z,5.90
2022-11-21T12:18:20.745Z,6.00
2022-11-21T12:20:56.879Z,6.00
2022-11-21T12:23:45.465Z,6.00
2022-11-21T12:26:13.057Z,6.00
2022-11-21T12:29:15.792Z,5.90
2022-11-21T12:32:30.430Z,6.00
2022-11-21T12:35:26.816Z,6.00
2022-11-21T12:38:16.008Z,6.00
2022-11-21T12:40:52.587Z,6.00
2022-11-21T12:43:25.696Z,6.00
2022-11-21T12:46:16.184Z,6.00
2022-11-21T12:49:39.661Z,6.00
2022-11-21T12:52:25.884Z,6.00
2022-11-21T12:55:09.877Z,6.00
2022-11-21T12:58:07.910Z,6.00
2022-11-21T13:01:01.848Z,6.00
2022-11-21T13:03:41.655Z,6.00
2022-11-21T13:06:23.728Z,6.00
2022-11-21T13:08:54.655Z,6.10
2022-11-21T13:12:01.360Z,6.10
2022-11-21T13:14:37.583Z,6.10
2022-11-21T13:17:27.251Z,6.10
2022-11-21T13:20:02.872Z,6.10
2022-11-21T13:22:36.653Z,6.10
2022-11-21T13:25:10.021Z,6.10
2022-11-21T13:27:41.582Z,6.10
2022-11-21T13:30:09.530Z,6.10
2022-11-21T13:32:37.388Z,6.10
2022-11-21T13:35:19.830Z,6.10
2022-11-21T13:37:50.140Z,6.10
2022-11-21T13:40:26.775Z,7.60
2022-11-21T13:43:32.748Z,6.10
2022-11-21T13:46:01.717Z,6.10
2022-11-21T13:48:34.627Z,6.10
2022-11-21T13:51:11.306Z,6.10
2022-11-21T13:53:58.089Z,6.10
2022-11-21T13:56:37.667Z,6.10
2022-11-21T13:59:24.483Z,6.10
2022-11-21T14:02:19.795Z,6.10
2022-11-21T14:05:11.462Z,6.10
2022-11-21T14:07:41.028Z,6.10
2022-11-21T14:10:33.812Z,6.10
2022-11-21T14:13:03.401Z,6.10
2022-11-21T14:16:10.571Z,6.10
2022-11-21T14:18:39.545Z,6.10
2022-11-21T14:21:09.199Z,6.20
2022-11-21T14:23:45.361Z,6.10
2022-11-21T14:26:17.505Z,6.10
2022-11-21T14:28:45.062Z,6.20
2022-11-21T14:31:13.740Z,6.20
2022-11-21T14:33:47.987Z,6.20
2022-11-21T14:36:25.591Z,6.20
2022-11-21T14:39:34.660Z,6.20
2022-11-21T14:41:52.089Z,6.30
2022-11-21T14:44:21.985Z,6.20
2022-11-21T14:46:50.447Z,6.20
2022-11-21T14:49:18.043Z,6.30
2022-11-21T14:51:53.961Z,6.30
2022-11-21T14:54:28.604Z,6.30
2022-11-21T14:57:02.812Z,6.30
2022-11-21T14:59:43.093Z,6.30
2022-11-21T15:02:15.326Z,6.30
2022-11-21T15:04:44.492Z,6.30
2022-11-21T15:07:25.650Z,6.30
2022-11-21T15:12:48.274Z,6.40
2022-11-21T15:15:30.197Z,6.40
2022-11-21T15:18:26.450Z,6.40
2022-11-21T15:21:03.362Z,6.50
2022-11-21T15:23:30.970Z,6.50
2022-11-21T15:26:01.314Z,6.50
2022-11-21T15:28:30.638Z,6.50
2022-11-21T15:31:17.808Z,6.50
2022-11-21T15:34:34.193Z,6.50
2022-11-21T15:37:08.524Z,6.60
2022-11-21T15:39:49.891Z,6.60
2022-11-21T15:42:37.074Z,6.50
2022-11-21T15:45:22.791Z,6.60
2022-11-21T15:47:50.392Z,6.60
2022-11-21T15:50:18.602Z,6.60
2022-11-21T15:52:51.382Z,6.60
2022-11-21T15:55:25.825Z,6.60
2022-11-21T15:57:53.528Z,6.60
2022-11-21T16:00:21.432Z,6.60
2022-11-21T16:02:48.990Z,6.60
2022-11-21T16:05:16.697Z,6.60
2022-11-21T16:07:44.425Z,6.60
2022-11-21T16:10:19.712Z,6.60
2022-11-21T16:12:50.495Z,6.60
2022-11-21T16:15:18.123Z,6.70
2022-11-21T16:17:47.448Z,6.70
2022-11-21T16:20:15.807Z,6.70
2022-11-21T16:22:48.163Z,6.70
2022-11-21T16:25:16.294Z,6.70
2022-11-21T16:27:44.306Z,6.70
2022-11-21T16:30:12.582Z,6.70
2022-11-21T16:32:40.118Z,6.70
2022-11-21T16:37:35.795Z,6.80
2022-11-21T16:40:03.605Z,6.70
2022-11-21T16:42:31.369Z,6.70
2022-11-21T16:44:59.121Z,6.70
2022-11-21T16:47:26.881Z,6.80
2022-11-21T16:49:54.736Z,6.80
2022-11-21T16:52:22.245Z,6.80
2022-11-21T16:54:49.974Z,6.70
2022-11-21T16:57:17.551Z,6.80
2022-11-21T16:59:45.359Z,6.80
2022-11-21T17:02:12.959Z,6.80
2022-11-21T17:04:40.513Z,6.80
2022-11-21T17:07:08.052Z,6.80
2022-11-21T17:09:35.683Z,6.70
2022-11-21T17:12:03.203Z,6.80
2022-11-21T17:14:31.184Z,6.80
2022-11-21T17:17:01.592Z,6.80
2022-11-21T17:19:29.244Z,6.80
2022-11-21T17:21:56.894Z,6.80
2022-11-21T17:24:25.298Z,6.80
2022-11-21T17:26:52.992Z,6.80
2022-11-21T17:29:20.957Z,6.60
2022-11-21T17:31:50.365Z,6.80
2022-11-21T17:34:18.312Z,6.80
2022-11-21T17:36:45.880Z,6.80
2022-11-21T17:39:13.761Z,6.80
2022-11-21T17:41:44.215Z,6.80
2022-11-21T17:44:16.035Z,6.80
2022-11-21T17:46:47.035Z,6.80
2022-11-21T17:49:14.763Z,6.70
2022-11-21T17:51:42.994Z,6.70
2022-11-21T17:54:11.222Z,6.70
2022-11-21T17:56:45.465Z,6.70
2022-11-21T17:59:15.058Z,6.70
2022-11-21T18:01:42.870Z,6.70
2022-11-21T18:04:15.107Z,6.60
2022-11-21T18:06:43.124Z,6.60
2022-11-21T18:09:11.790Z,6.60
2022-11-21T18:11:41.636Z,6.60
2022-11-21T18:14:11.754Z,6.60
2022-11-21T18:16:43.561Z,6.60
2022-11-21T18:19:17.050Z,6.50
2022-11-21T18:21:46.024Z,6.50
2022-11-21T18:24:13.679Z,6.50
2022-11-21T18:26:41.816Z,6.50
2022-11-21T18:31:58.046Z,6.40
2022-11-21T18:34:25.982Z,6.40
2022-11-21T18:36:54.330Z,6.30
2022-11-21T18:39:24.923Z,6.30
2022-11-21T18:41:52.867Z,6.30
2022-11-21T18:44:22.532Z,6.30
2022-11-21T18:46:51.057Z,6.30
2022-11-21T18:49:18.894Z,6.20
2022-11-21T18:51:46.644Z,6.30
2022-11-21T18:54:15.292Z,6.30
2022-11-21T18:56:43.353Z,6.20
2022-11-21T18:59:11.344Z,6.20
2022-11-21T19:01:39.974Z,6.20
2022-11-21T19:04:08.684Z,6.20
2022-11-21T19:06:36.464Z,6.20
2022-11-21T19:09:04.587Z,6.20
2022-11-21T19:11:32.230Z,6.20
2022-11-21T19:14:00.866Z,6.20
2022-11-21T19:16:31.548Z,6.20
2022-11-21T19:19:32.554Z,6.20
2022-11-21T19:21:47.810Z,6.20
2022-11-21T19:24:18.883Z,6.10
2022-11-21T19:26:46.969Z,6.20
2022-11-21T19:29:14.533Z,6.20
2022-11-21T19:31:45.562Z,6.20
2022-11-21T19:34:15.034Z,6.20
2022-11-21T19:36:43.542Z,6.20
2022-11-21T19:39:11.399Z,6.20
2022-11-21T19:41:39.158Z,6.20
2022-11-21T19:44:06.758Z,6.20
2022-11-21T19:46:38.105Z,6.20
2022-11-21T19:49:07.618Z,6.30
2022-11-21T19:51:40.989Z,6.20
2022-11-21T19:54:11.295Z,6.20
2022-11-21T19:56:38.908Z,6.20
2022-11-21T19:59:06.506Z,6.20
2022-11-21T20:01:35.451Z,6.20
2022-11-21T20:04:05.243Z,6.10
2022-11-21T20:06:39.988Z,6.20
2022-11-21T20:09:11.121Z,6.20
2022-11-21T20:11:40.547Z,6.20
2022-11-21T20:14:08.406Z,6.20
2022-11-21T20:16:38.720Z,6.20
2022-11-21T20:19:17.329Z,6.20
2022-11-21T20:21:46.357Z,6.20
2022-11-21T20:24:14.605Z,6.10
2022-11-21T20:26:42.789Z,6.10
2022-11-21T20:29:14.729Z,6.20
2022-11-21T20:31:42.585Z,6.10
2022-11-21T20:34:14.001Z,6.20
2022-11-21T20:36:42.111Z,6.20
2022-11-21T20:39:18.006Z,6.10
2022-11-21T20:41:47.073Z,6.10
2022-11-21T20:47:06.384Z,6.10
2022-11-21T20:49:34.907Z,6.10
2022-11-21T20:54:53.469Z,6.00
2022-11-21T20:57:21.250Z,6.10
2022-11-21T20:59:48.787Z,6.00
2022-11-21T21:02:16.447Z,6.00
2022-11-21T21:04:46.782Z,6.10
2022-11-21T21:09:45.378Z,6.10
2022-11-21T21:12:12.883Z,6.10
2022-11-21T21:14:40.547Z,6.00
2022-11-21T21:17:08.105Z,6.00
2022-11-21T21:19:35.726Z,6.00
2022-11-21T21:22:05.227Z,6.00
2022-11-21T21:24:32.944Z,6.00
2022-11-21T21:27:00.526Z,6.00
2022-11-21T21:29:28.844Z,6.00
2022-11-21T21:31:56.625Z,6.00
2022-11-21T21:34:24.353Z,6.00
2022-11-21T21:36:52.245Z,6.00
2022-11-21T21:39:19.900Z,6.00
2022-11-21T21:44:16.661Z,6.00
2022-11-21T21:46:44.987Z,6.00
2022-11-21T21:49:12.702Z,6.00
2022-11-21T21:51:40.686Z,5.90
2022-11-21T21:54:18.398Z,6.00
2022-11-21T21:56:47.126Z,6.00
2022-11-21T21:59:15.051Z,5.90
2022-11-21T22:01:43.040Z,5.90
2022-11-21T22:04:12.682Z,5.90
2022-11-21T22:06:40.640Z,5.90
2022-11-21T22:09:08.182Z,5.90
2022-11-21T22:11:38.995Z,5.90
2022-11-21T22:14:11.668Z,5.90
2022-11-21T22:16:39.877Z,5.90
2022-11-21T22:19:07.775Z,5.90
2022-11-21T22:21:37.547Z,5.80
2022-11-21T22:24:28.521Z,5.90
2022-11-21T22:26:56.350Z,5.90
2022-11-21T22:29:24.181Z,5.80
2022-11-21T22:31:52.141Z,5.80
2022-11-21T22:34:19.912Z,5.80
2022-11-21T22:36:47.601Z,5.80
2022-11-21T22:39:15.958Z,5.80
2022-11-21T22:41:43.620Z,5.70
2022-11-21T22:44:11.485Z,5.80
2022-11-21T22:46:39.237Z,5.70
2022-11-21T22:49:06.876Z,5.80
2022-11-21T22:51:35.278Z,5.80
2022-11-21T22:54:03.266Z,5.80
2022-11-21T22:56:30.822Z,5.80
2022-11-21T22:58:58.566Z,5.70
2022-11-21T23:01:26.761Z,5.70
2022-11-21T23:03:55.734Z,5.70
2022-11-21T23:06:26.219Z,5.70
2022-11-21T23:08:56.214Z,5.70
2022-11-21T23:11:27.935Z,5.70
2022-11-21T23:13:56.876Z,5.70
2022-11-21T23:16:25.390Z,5.70
2022-11-21T23:18:54.025Z,5.70
2022-11-21T23:21:22.269Z,5.70
2022-11-21T23:23:50.142Z,5.70
2022-11-21T23:26:17.763Z,5.70
2022-11-21T23:28:45.394Z,5.60
2022-11-21T23:31:13.161Z,5.70
2022-11-21T23:33:41.345Z,5.70
2022-11-21T23:36:09.145Z,5.70
2022-11-21T23:38:36.745Z,5.60
2022-11-21T23:41:04.848Z,5.60
2022-11-21T23:43:32.529Z,5.70
2022-11-21T23:46:00.186Z,5.60
2022-11-21T23:48:28.515Z,5.60
2022-11-21T23:50:56.313Z,5.60
2022-11-21T23:53:24.092Z,5.60
2022-11-21T23:55:51.908Z,5.60
2022-11-21T23:58:19.570Z,5.60
